Aviation Digital Data Service (ADDS)

Output produced by METARs form (0459 UTC 25 April 2014)
found at http://aviationweather.gov/adds/metars/
 
KRDU 250158Z 2502/2524 VRB04KT P6SM BKN250 
     FM251000 18008G15KT P6SM SCT015 BKN035 
     TEMPO 2511/2515 5SM -SHRA BKN012 OVC025 
     FM251600 19013G20KT P6SM BKN025 
     FM251800 22014G23KT P6SM SCT025 BKN035 
     PROB30 2520/2524 2SM TSRA BKN025CB